Аэропорт: Ширак. Гюмри

ICAO: UDSG

METAR:
2021-07-28 15:00:00
UDSG 281500Z 06018KT 9999 FEW049 21/11 Q1015 R02/////// NOSIG
METAR:
2021-07-28 11:11:00
TAF UDSG 281111Z 2812/2912 03006KT 9999 FEW040 TEMPO 2812/2821 VRB18G28KT -TSRA SCT040CB